Time;durP1;ratioP1;P1;durP2;ratioP2;P2;SDS_P1;SDS_P2;PMS_P1;PMS_P2;Temp;Humidity;BMP_temperature;BMP_pressure;BME280_temperature;BME280_humidity;BME280_pressure;Samples;Min_cycle;Max_cycle;Signal;HPM_P1;HPM_P2
2022/06/15 00:00:41;;;;;;;6.68;4.15;;;;;;;16.11;79.39;96407.50;5036804;28;20653;-73
2022/06/15 00:03:09;;;;;;;7.82;3.22;;;;;;;15.71;81.29;96403.22;5035543;28;20584;-73
2022/06/15 00:05:37;;;;;;;7.05;3.38;;;;;;;16.01;79.91;96407.94;5036473;28;20348;-73
2022/06/15 00:08:04;;;;;;;7.60;3.85;;;;;;;16.03;79.81;96408.53;5036985;28;20228;-73
2022/06/15 00:10:30;;;;;;;8.18;3.92;;;;;;;16.06;80.19;96409.94;5036620;28;20205;-73
2022/06/15 00:12:57;;;;;;;6.95;3.58;;;;;;;16.11;79.21;96410.16;5035870;28;20224;-73
2022/06/15 00:15:23;;;;;;;5.75;3.90;;;;;;;16.11;79.25;96410.97;5036533;28;20201;-73
2022/06/15 00:17:49;;;;;;;6.63;3.78;;;;;;;16.08;78.90;96410.56;5036383;28;20232;-73
2022/06/15 00:20:16;;;;;;;6.85;3.83;;;;;;;16.09;78.87;96407.72;5036394;28;20200;-73
2022/06/15 00:22:44;;;;;;;6.68;3.88;;;;;;;16.07;78.89;96412.41;5035622;28;20216;-73
2022/06/15 00:25:13;;;;;;;8.98;4.03;;;;;;;16.06;79.13;96408.13;5036410;28;20327;-73
2022/06/15 00:27:39;;;;;;;8.00;3.58;;;;;;;15.80;79.47;96401.19;5035901;28;20247;-74
2022/06/15 00:30:07;;;;;;;9.93;4.25;;;;;;;15.93;78.98;96404.66;5037119;28;20228;-73
2022/06/15 00:32:34;;;;;;;8.23;3.38;;;;;;;15.67;79.38;96395.84;5035747;28;20220;-73
2022/06/15 00:35:00;;;;;;;7.70;3.60;;;;;;;15.79;78.59;96397.72;5039973;28;20204;-73
2022/06/15 00:37:27;;;;;;;5.72;3.28;;;;;;;15.56;79.57;96389.31;5040523;28;20209;-73
2022/06/15 00:39:54;;;;;;;6.72;3.97;;;;;;;15.53;80.28;96388.91;5037820;28;20212;-73
2022/06/15 00:42:21;;;;;;;7.90;3.58;;;;;;;15.45;81.28;96386.44;5039207;28;20209;-73
2022/06/15 00:44:49;;;;;;;7.47;3.85;;;;;;;15.54;81.42;96387.88;5039666;28;20206;-73
2022/06/15 00:47:22;;;;;;;5.93;3.67;;;;;;;15.34;81.92;96387.88;5040581;28;20298;-73
2022/06/15 00:49:53;;;;;;;6.78;3.78;;;;;;;15.32;82.09;96387.28;5040232;28;20201;-73
2022/06/15 00:52:24;;;;;;;7.18;3.63;;;;;;;14.87;83.03;96389.78;5038913;28;20205;-73
2022/06/15 00:54:51;;;;;;;8.80;4.22;;;;;;;14.84;83.33;96389.34;5039920;28;20235;-73
2022/06/15 00:57:20;;;;;;;5.50;3.30;;;;;;;15.10;83.00;96390.25;5039854;28;21290;-74
2022/06/15 00:59:53;;;;;;;10.13;3.97;;;;;;;15.22;82.33;96391.31;5037689;28;20197;-73
2022/06/15 01:02:20;;;;;;;6.82;3.90;;;;;;;15.28;82.43;96395.84;5038910;28;20201;-73
2022/06/15 01:04:50;;;;;;;7.57;4.00;;;;;;;15.29;81.08;96402.78;5039625;28;20243;-73
2022/06/15 01:07:39;;;;;;;7.28;3.72;;;;;;;15.16;80.20;96394.75;5039739;28;20225;-73
2022/06/15 01:10:17;;;;;;;8.77;3.80;;;;;;;15.19;79.66;96402.31;5039432;28;20708;-73
2022/06/15 01:12:59;;;;;;;10.40;3.20;;;;;;;15.23;79.84;96394.81;5038626;28;20201;-73
2022/06/15 01:15:38;;;;;;;7.82;3.85;;;;;;;15.30;79.30;96394.63;5039317;28;20201;-73
2022/06/15 01:18:18;;;;;;;7.63;4.22;;;;;;;15.10;80.94;96386.78;5039975;28;20240;-73
2022/06/15 01:21:02;;;;;;;6.47;3.80;;;;;;;15.02;81.43;96384.28;5039522;28;20213;-73
2022/06/15 01:24:22;;;;;;;6.25;3.78;;;;;;;15.21;80.14;96376.44;5038472;28;20219;-73
2022/06/15 01:27:13;;;;;;;7.25;3.10;;;;;;;15.00;79.26;96384.50;5039439;28;20228;-73
2022/06/15 01:30:21;;;;;;;10.52;3.85;;;;;;;15.08;79.74;96379.00;5038795;28;20205;-73
2022/06/15 01:33:01;;;;;;;11.48;4.00;;;;;;;14.93;81.95;96375.72;5038265;28;20204;-73
2022/06/15 01:35:38;;;;;;;5.70;3.67;;;;;;;14.85;80.57;96375.06;5039129;28;20216;-73
2022/06/15 01:38:21;;;;;;;9.02;3.97;;;;;;;14.94;81.35;96377.38;5039158;28;20225;-73
2022/06/15 01:40:53;;;;;;;8.27;3.20;;;;;;;14.94;80.98;96381.84;5036428;28;20202;-73
2022/06/15 01:43:26;;;;;;;9.15;3.47;;;;;;;14.41;80.91;96382.66;5038158;28;20209;-73
2022/06/15 01:45:57;;;;;;;7.78;4.03;;;;;;;14.25;80.85;96377.66;5038535;28;20591;-73
2022/06/15 01:48:24;;;;;;;7.43;3.90;;;;;;;14.41;81.42;96379.16;5039721;28;20500;-73
2022/06/15 01:50:55;;;;;;;8.80;3.78;;;;;;;14.50;82.36;96380.63;5039485;28;20193;-73
2022/06/15 01:53:26;;;;;;;7.72;3.95;;;;;;;14.50;82.34;96385.94;5037827;28;20677;-73
2022/06/15 01:56:01;;;;;;;7.72;3.38;;;;;;;14.63;82.30;96378.06;5038740;28;20201;-73
2022/06/15 01:58:31;;;;;;;10.63;4.13;;;;;;;14.62;81.29;96365.81;5038702;28;20220;-73
2022/06/15 02:01:08;;;;;;;9.07;4.30;;;;;;;14.65;80.04;96368.91;5038899;28;20201;-73
2022/06/15 02:03:43;;;;;;;6.32;3.63;;;;;;;14.69;79.93;96368.28;5037951;28;20215;-73
2022/06/15 02:06:20;;;;;;;7.63;3.75;;;;;;;14.62;79.56;96366.63;5038929;28;20604;-73
2022/06/15 02:08:50;;;;;;;4.85;3.20;;;;;;;14.57;80.69;96365.59;5038536;28;20228;-73
2022/06/15 02:11:22;;;;;;;7.40;3.63;;;;;;;14.54;79.18;96368.66;5038930;28;20212;-73
2022/06/15 02:13:56;;;;;;;6.55;3.08;;;;;;;14.47;79.72;96362.47;5037726;28;20197;-73
2022/06/15 02:16:29;;;;;;;6.38;3.58;;;;;;;14.01;80.93;96364.88;5038516;28;20220;-73
2022/06/15 02:18:57;;;;;;;5.70;3.30;;;;;;;14.17;80.22;96363.78;5038625;28;20217;-73
2022/06/15 02:21:27;;;;;;;8.05;3.78;;;;;;;14.13;81.09;96359.88;5038840;28;20202;-73
2022/06/15 02:23:57;;;;;;;9.30;3.47;;;;;;;13.87;81.33;96362.31;5037088;28;20751;-73
2022/06/15 02:26:27;;;;;;;8.43;4.30;;;;;;;13.84;81.97;96357.41;5038148;28;20236;-73
2022/06/15 02:28:59;;;;;;;7.47;4.20;;;;;;;13.82;82.79;96356.78;5038227;28;20229;-73
2022/06/15 02:31:28;;;;;;;7.68;3.67;;;;;;;14.02;83.39;96357.75;5038379;28;20606;-73
2022/06/15 02:33:56;;;;;;;5.90;3.78;;;;;;;13.90;83.70;96351.34;5036785;28;20205;-73
2022/06/15 02:36:24;;;;;;;13.20;4.65;;;;;;;14.08;83.84;96359.66;5038279;28;20197;-73
2022/06/15 02:38:52;;;;;;;7.70;4.25;;;;;;;14.06;84.67;96359.81;5034650;28;20240;-73
2022/06/15 02:41:20;;;;;;;7.68;3.80;;;;;;;13.80;84.13;96368.63;5037949;28;20681;-73
2022/06/15 02:43:48;;;;;;;6.00;3.92;;;;;;;13.42;86.45;96364.66;5037105;28;20201;-73
2022/06/15 02:46:18;;;;;;;7.47;4.40;;;;;;;13.90;85.11;96351.34;5038103;28;20228;-73
2022/06/15 02:48:51;;;;;;;11.98;4.20;;;;;;;13.90;84.58;96354.00;5037461;28;20225;-73
2022/06/15 02:51:24;;;;;;;11.48;4.43;;;;;;;13.89;85.49;96349.72;5038448;28;20209;-73
2022/06/15 02:53:55;;;;;;;7.75;4.22;;;;;;;14.02;85.10;96353.25;5036594;28;20219;-73
2022/06/15 02:56:23;;;;;;;7.43;4.10;;;;;;;13.71;84.95;96354.69;5036559;28;20201;-73
2022/06/15 02:58:52;;;;;;;6.45;3.88;;;;;;;13.92;84.38;96353.81;5037311;28;20221;-73
2022/06/15 03:01:19;;;;;;;8.68;4.20;;;;;;;14.01;84.01;96350.78;5038459;28;20241;-73
2022/06/15 03:03:47;;;;;;;8.93;4.15;;;;;;;14.09;84.63;96348.84;5036791;28;20580;-73
2022/06/15 03:06:17;;;;;;;9.43;5.00;;;;;;;14.17;84.81;96337.28;5037080;28;20228;-73
2022/06/15 03:08:43;;;;;;;8.73;4.65;;;;;;;13.95;82.84;96343.66;5037058;28;20225;-73
2022/06/15 03:11:10;;;;;;;6.65;4.07;;;;;;;13.87;83.63;96348.28;5037083;28;20205;-73
2022/06/15 03:13:37;;;;;;;9.27;4.35;;;;;;;13.57;85.39;96346.84;5036629;28;20209;-73
2022/06/15 03:16:05;;;;;;;10.93;4.07;;;;;;;13.67;86.23;96353.44;5037533;28;20224;-73
2022/06/15 03:18:33;;;;;;;7.03;4.25;;;;;;;13.87;86.39;96351.72;5037092;28;20279;-73
2022/06/15 03:21:00;;;;;;;13.77;4.75;;;;;;;13.99;86.38;96358.13;5036871;28;20212;-73
2022/06/15 03:23:30;;;;;;;10.10;5.05;;;;;;;14.03;87.12;96362.84;5036406;28;20216;-73
2022/06/15 03:25:58;;;;;;;8.77;4.68;;;;;;;13.96;87.63;96353.22;5034226;28;20232;-74
2022/06/15 03:28:25;;;;;;;12.43;4.22;;;;;;;13.98;83.31;96361.78;5037163;28;20236;-74
2022/06/15 03:30:52;;;;;;;10.40;4.18;;;;;;;13.73;84.18;96363.25;5037274;28;20205;-74
2022/06/15 03:33:20;;;;;;;11.10;4.72;;;;;;;14.07;84.00;96363.28;5036491;28;20209;-74
2022/06/15 03:35:47;;;;;;;7.43;4.38;;;;;;;13.84;85.73;96369.84;5036523;28;20197;-74
2022/06/15 03:38:14;;;;;;;9.43;4.53;;;;;;;13.60;86.55;96365.78;5036626;28;20217;-74
2022/06/15 03:40:44;;;;;;;8.15;4.05;;;;;;;13.90;85.14;96369.91;5034320;28;20208;-74
2022/06/15 03:43:11;;;;;;;7.40;4.22;;;;;;;13.67;85.97;96366.69;5036362;28;20201;-74
2022/06/15 03:45:38;;;;;;;6.78;4.18;;;;;;;13.53;85.95;96367.59;5037011;28;20205;-74
2022/06/15 03:48:05;;;;;;;7.38;4.10;;;;;;;13.54;86.83;96363.94;5036673;28;20232;-74
2022/06/15 03:50:34;;;;;;;7.40;4.10;;;;;;;13.89;85.24;96362.16;5036544;28;20224;-75
2022/06/15 03:53:01;;;;;;;9.02;4.50;;;;;;;13.97;85.21;96360.16;5036003;28;20233;-74
2022/06/15 03:55:29;;;;;;;8.80;4.95;;;;;;;14.00;86.74;96365.06;5037093;28;20211;-74
2022/06/15 03:57:58;;;;;;;8.45;5.18;;;;;;;14.23;86.85;96365.63;5036608;28;20261;-74
2022/06/15 04:00:26;;;;;;;11.18;4.88;;;;;;;14.24;85.92;96364.63;5036422;28;20205;-74
2022/06/15 04:02:53;;;;;;;6.65;4.20;;;;;;;14.24;84.89;96357.50;5035837;28;20201;-74
2022/06/15 04:05:24;;;;;;;8.15;4.20;;;;;;;14.39;84.93;96360.81;5036711;28;20205;-74
2022/06/15 04:10:36;;;;;;;10.80;4.18;;;;;;;14.36;84.91;96352.47;5036004;28;20582;-74
2022/06/15 04:13:05;;;;;;;10.38;4.45;;;;;;;14.27;86.24;96357.09;5034830;28;21206;-73
2022/06/15 04:15:32;;;;;;;9.38;4.53;;;;;;;14.27;86.53;96354.44;5035805;28;20201;-75
2022/06/15 04:17:58;;;;;;;8.30;4.63;;;;;;;14.12;86.93;96361.69;5036665;28;20225;-74
2022/06/15 04:20:33;;;;;;;8.25;4.82;;;;;;;14.19;87.57;96359.91;5037287;28;20205;-74
2022/06/15 04:23:00;;;;;;;8.43;4.93;;;;;;;14.36;87.30;96357.75;5035219;28;21089;-75
2022/06/15 04:25:27;;;;;;;9.18;4.80;;;;;;;14.36;86.88;96350.63;5036587;28;20296;-74
2022/06/15 04:27:53;;;;;;;7.53;4.30;;;;;;;14.27;86.43;96356.28;5036570;28;20232;-75
2022/06/15 04:30:21;;;;;;;10.70;4.53;;;;;;;14.70;85.38;96358.50;5036269;28;21324;-76
2022/06/15 04:32:48;;;;;;;10.45;4.63;;;;;;;14.72;85.79;96351.97;5035501;28;20208;-75
2022/06/15 04:35:15;;;;;;;9.80;4.68;;;;;;;14.77;86.18;96360.16;5036352;28;20749;-74
2022/06/15 04:37:41;;;;;;;17.30;5.25;;;;;;;14.95;86.50;96359.59;5035694;28;20772;-74
2022/06/15 04:40:09;;;;;;;10.95;5.10;;;;;;;15.13;86.44;96354.53;5032953;28;20300;-75
2022/06/15 04:42:36;;;;;;;10.82;5.15;;;;;;;15.30;85.51;96353.97;5035329;28;20216;-74
2022/06/15 04:45:03;;;;;;;8.43;5.10;;;;;;;15.39;85.90;96358.06;5036245;28;20200;-74
2022/06/15 04:47:31;;;;;;;11.88;5.43;;;;;;;15.50;86.08;96360.94;5036431;28;20452;-75
2022/06/15 04:49:57;;;;;;;13.20;6.05;;;;;;;15.54;86.18;96363.97;5036329;28;20209;-73
2022/06/15 04:52:25;;;;;;;15.18;5.90;;;;;;;15.82;85.86;96361.94;5035397;28;20212;-74
2022/06/15 04:54:51;;;;;;;20.90;6.00;;;;;;;15.80;85.78;96364.00;5036225;28;20209;-75
2022/06/15 04:57:17;;;;;;;19.17;6.80;;;;;;;15.90;85.99;96363.34;5036120;28;20205;-75
2022/06/15 04:59:44;;;;;;;14.70;6.18;;;;;;;15.94;86.93;96361.91;5036333;28;20213;-73
2022/06/15 05:02:11;;;;;;;16.77;6.47;;;;;;;16.08;87.44;96366.19;5036401;28;20208;-75
2022/06/15 05:04:39;;;;;;;15.70;6.18;;;;;;;16.33;86.64;96361.03;5035705;28;20597;-74
2022/06/15 05:07:07;;;;;;;14.05;5.63;;;;;;;16.27;87.55;96362.69;5035810;28;20231;-74
2022/06/15 05:09:33;;;;;;;13.68;6.38;;;;;;;16.33;87.53;96356.56;5035866;28;20312;-74
2022/06/15 05:11:59;;;;;;;16.45;6.28;;;;;;;16.48;86.56;96365.09;5036267;28;20209;-75
2022/06/15 05:14:26;;;;;;;13.07;6.00;;;;;;;16.64;85.25;96354.78;5034973;28;20208;-75
2022/06/15 05:16:53;;;;;;;11.95;5.70;;;;;;;16.82;84.38;96359.44;5035800;28;20216;-75
2022/06/15 05:19:19;;;;;;;10.55;5.75;;;;;;;17.01;85.14;96354.00;5037296;28;20232;-75
2022/06/15 05:21:47;;;;;;;13.20;6.03;;;;;;;17.21;85.26;96349.38;5039362;28;20204;-74
2022/06/15 05:24:14;;;;;;;10.70;5.53;;;;;;;17.27;84.92;96346.72;5038627;28;20209;-73
2022/06/15 05:26:40;;;;;;;9.55;5.38;;;;;;;17.64;80.97;96343.13;5039820;28;20209;-74
2022/06/15 05:29:07;;;;;;;10.07;5.25;;;;;;;18.03;78.89;96342.78;5038801;28;20216;-74
2022/06/15 05:31:35;;;;;;;11.07;5.32;;;;;;;18.26;77.11;96335.78;5039750;28;20284;-76
2022/06/15 05:34:01;;;;;;;12.70;5.05;;;;;;;18.32;76.81;96328.75;5038930;28;20212;-76
2022/06/15 05:36:31;;;;;;;12.55;5.10;;;;;;;18.57;75.40;96325.78;5038916;28;20673;-74
2022/06/15 05:38:59;;;;;;;8.55;4.70;;;;;;;18.70;74.15;96327.47;5034957;28;20233;-75
2022/06/15 05:41:26;;;;;;;11.18;5.20;;;;;;;18.60;73.54;96325.34;5039895;28;20201;-76
2022/06/15 05:43:53;;;;;;;10.20;4.57;;;;;;;18.82;74.22;96329.16;5038340;28;21272;-76
2022/06/15 05:46:24;;;;;;;9.27;4.95;;;;;;;19.01;73.96;96341.44;5038552;28;20216;-74
2022/06/15 05:48:51;;;;;;;13.55;4.45;;;;;;;19.06;73.20;96341.59;5039478;28;20238;-74
2022/06/15 05:51:17;;;;;;;11.07;4.75;;;;;;;19.28;71.81;96340.06;5038835;28;20220;-76
2022/06/15 05:53:44;;;;;;;8.05;4.75;;;;;;;19.36;72.26;96342.41;5037821;28;20205;-75
2022/06/15 05:56:12;;;;;;;9.43;5.03;;;;;;;19.19;74.22;96344.88;5039475;28;20232;-73
2022/06/15 05:58:38;;;;;;;9.23;4.57;;;;;;;19.33;74.14;96348.22;5038927;28;20236;-73
2022/06/15 06:01:09;;;;;;;9.23;4.57;;;;;;;19.64;70.28;96344.22;5038835;28;20220;-73
2022/06/15 06:03:36;;;;;;;11.60;5.05;;;;;;;19.75;70.13;96345.28;5037800;28;20220;-73
2022/06/15 06:06:03;;;;;;;9.40;4.72;;;;;;;19.58;70.37;96342.44;5038742;28;20204;-73
2022/06/15 06:08:29;;;;;;;12.38;4.82;;;;;;;19.14;73.74;96344.78;5038611;28;20237;-73
2022/06/15 06:10:56;;;;;;;10.73;5.13;;;;;;;19.07;74.55;96338.69;5038625;28;20201;-72
2022/06/15 06:13:24;;;;;;;9.95;5.35;;;;;;;18.98;74.92;96350.72;5038001;28;20209;-73
2022/06/15 06:15:52;;;;;;;10.00;5.45;;;;;;;18.86;74.09;96343.69;5037969;28;20197;-73
2022/06/15 06:18:18;;;;;;;11.38;5.22;;;;;;;18.97;72.48;96348.28;5038439;28;20225;-73
2022/06/15 06:20:45;;;;;;;8.95;5.15;;;;;;;19.03;73.21;96350.06;5038448;28;20204;-73
2022/06/15 06:23:11;;;;;;;10.43;5.20;;;;;;;19.02;76.53;96351.09;5036362;28;20201;-73
2022/06/15 06:25:38;;;;;;;9.80;5.03;;;;;;;19.15;72.54;96356.28;5035740;28;20205;-73
2022/06/15 06:28:05;;;;;;;10.73;4.90;;;;;;;19.26;72.65;96350.97;5036617;28;20463;-73
2022/06/15 06:30:33;;;;;;;11.75;5.57;;;;;;;19.40;72.64;96359.59;5035550;28;20209;-73
2022/06/15 06:32:59;;;;;;;10.90;5.22;;;;;;;19.40;73.51;96354.25;5036265;28;20209;-73
2022/06/15 06:35:25;;;;;;;14.30;5.47;;;;;;;19.47;72.16;96357.66;5037151;28;20206;-73
2022/06/15 06:37:53;;;;;;;8.80;4.88;;;;;;;19.45;74.15;96347.19;5037120;28;20227;-73
2022/06/15 06:40:20;;;;;;;8.85;5.43;;;;;;;19.61;73.63;96359.91;5034053;28;20292;-73
2022/06/15 06:42:47;;;;;;;11.35;5.03;;;;;;;19.74;71.00;96352.50;5036191;28;20204;-73
2022/06/15 06:45:13;;;;;;;7.53;4.90;;;;;;;19.72;77.22;96354.56;5037422;28;20212;-73
2022/06/15 06:47:42;;;;;;;8.50;4.80;;;;;;;20.06;71.59;96351.16;5037105;28;20705;-73
2022/06/15 06:50:10;;;;;;;9.35;4.75;;;;;;;19.99;71.31;96355.78;5036893;28;20209;-74
2022/06/15 06:52:37;;;;;;;10.13;4.45;;;;;;;20.34;69.78;96356.59;5036475;28;20255;-73
2022/06/15 06:55:03;;;;;;;10.80;4.50;;;;;;;20.32;69.80;96348.00;5037909;28;20213;-72
2022/06/15 06:57:30;;;;;;;9.65;4.20;;;;;;;20.23;71.69;96358.22;5037593;28;20205;-73
2022/06/15 06:59:57;;;;;;;11.60;5.15;;;;;;;20.15;72.88;96359.63;5036932;28;20213;-73
2022/06/15 07:02:23;;;;;;;7.00;4.50;;;;;;;20.54;69.61;96354.38;5036323;28;20227;-73
2022/06/15 07:04:51;;;;;;;11.05;4.10;;;;;;;20.87;67.51;96355.38;5036756;28;20209;-73
2022/06/15 07:07:17;;;;;;;8.18;4.65;;;;;;;20.85;70.90;96347.56;5037253;28;20213;-73
2022/06/15 07:09:44;;;;;;;11.75;4.55;;;;;;;21.03;69.36;96347.41;5037180;28;20206;-73
2022/06/15 07:12:11;;;;;;;8.90;4.30;;;;;;;21.35;66.75;96353.91;5036386;28;20966;-73
2022/06/15 07:14:37;;;;;;;8.48;4.28;;;;;;;21.44;65.49;96352.47;5036389;28;20356;-74
2022/06/15 07:17:04;;;;;;;10.30;3.92;;;;;;;21.72;66.05;96350.56;5036766;28;20253;-73
2022/06/15 07:19:31;;;;;;;7.35;4.10;;;;;;;21.50;68.40;96363.06;5036442;28;20221;-73
2022/06/15 07:21:59;;;;;;;8.10;4.15;;;;;;;21.69;66.25;96348.38;5036772;28;20208;-73
2022/06/15 07:24:25;;;;;;;11.55;4.18;;;;;;;21.65;65.10;96357.97;5035965;28;20244;-73
2022/06/15 07:26:53;;;;;;;7.28;4.20;;;;;;;21.57;65.97;96358.34;5036438;28;20208;-73
2022/06/15 07:29:22;;;;;;;13.10;4.35;;;;;;;21.91;64.93;96351.16;5036090;28;20327;-74
2022/06/15 07:31:52;;;;;;;7.93;3.88;;;;;;;22.03;65.73;96347.31;5036733;28;20205;-73
2022/06/15 07:34:19;;;;;;;8.98;4.60;;;;;;;21.84;68.28;96355.88;5035627;28;20212;-74
2022/06/15 07:36:47;;;;;;;9.30;4.38;;;;;;;22.02;63.33;96350.25;5036343;28;20197;-74
2022/06/15 07:39:15;;;;;;;5.97;3.55;;;;;;;22.34;64.01;96344.88;5033324;28;20283;-74
2022/06/15 07:41:42;;;;;;;8.27;3.67;;;;;;;22.60;64.31;96338.00;5036166;28;20197;-73
2022/06/15 07:44:09;;;;;;;7.13;3.65;;;;;;;22.22;63.37;96343.31;5035512;28;20212;-73
2022/06/15 07:46:35;;;;;;;7.88;3.92;;;;;;;22.43;62.50;96345.25;5036219;28;20658;-73
2022/06/15 07:51:51;;;;;;;8.88;4.03;;;;;;;23.07;63.11;96335.38;5035866;28;20211;-74
2022/06/15 07:54:20;;;;;;;6.53;4.00;;;;;;;22.97;59.00;96342.50;5035625;28;20747;-73
2022/06/15 07:56:47;;;;;;;7.55;3.70;;;;;;;23.17;57.97;96345.47;5036323;28;20208;-74
2022/06/15 07:59:15;;;;;;;9.23;4.28;;;;;;;23.20;59.95;96343.06;5035948;28;20221;-74
2022/06/15 08:01:43;;;;;;;5.43;3.70;;;;;;;23.15;62.75;96340.31;5035972;28;20201;-73
2022/06/15 08:04:10;;;;;;;10.35;4.30;;;;;;;23.07;61.07;96351.50;5035389;28;20235;-74
2022/06/15 08:06:38;;;;;;;5.40;3.63;;;;;;;23.26;60.69;96344.75;5035966;28;20239;-74
2022/06/15 08:09:09;;;;;;;7.10;3.60;;;;;;;23.36;59.79;96350.22;5036086;28;20693;-73
2022/06/15 08:11:37;;;;;;;7.65;4.03;;;;;;;23.70;60.57;96340.91;5037167;28;20570;-73
2022/06/15 08:14:05;;;;;;;7.10;3.65;;;;;;;23.67;58.32;96334.13;5034983;28;20619;-73
2022/06/15 08:16:32;;;;;;;7.15;3.67;;;;;;;23.68;59.46;96338.44;5035340;28;20221;-74
2022/06/15 08:19:02;;;;;;;7.65;4.10;;;;;;;23.93;59.85;96346.78;5036249;28;20229;-74
2022/06/15 08:21:32;;;;;;;8.20;4.25;;;;;;;23.85;58.60;96341.84;5035733;28;20258;-74
2022/06/15 08:23:59;;;;;;;8.90;3.45;;;;;;;23.79;58.66;96344.75;5035031;28;20373;-74
2022/06/15 08:26:31;;;;;;;9.55;3.85;;;;;;;23.54;57.80;96342.59;5036080;28;20212;-73
2022/06/15 08:29:03;;;;;;;8.23;4.15;;;;;;;23.43;60.11;96340.91;5036105;28;20959;-74
2022/06/15 08:31:30;;;;;;;5.93;3.33;;;;;;;23.13;61.17;96347.00;5035491;28;20372;-73
2022/06/15 08:33:56;;;;;;;5.80;3.38;;;;;;;23.48;61.72;96343.63;5035115;28;20252;-73
2022/06/15 08:36:23;;;;;;;6.68;3.92;;;;;;;23.78;58.11;96340.44;5035636;28;20207;-74
2022/06/15 08:38:49;;;;;;;8.10;3.47;;;;;;;23.83;58.73;96345.84;5033204;28;20232;-74
2022/06/15 08:41:25;;;;;;;7.10;3.92;;;;;;;24.07;59.36;96343.38;5036142;28;20487;-74
2022/06/15 08:43:58;;;;;;;6.00;3.47;;;;;;;24.08;59.55;96352.25;5034763;28;20201;-74
2022/06/15 08:46:41;;;;;;;5.55;3.80;;;;;;;24.42;56.30;96345.53;5035228;28;20400;-74
2022/06/15 08:49:19;;;;;;;7.47;3.97;;;;;;;24.36;59.08;96346.53;5035418;28;20577;-74
2022/06/15 08:51:51;;;;;;;6.25;3.53;;;;;;;24.68;58.61;96340.84;5035934;28;20912;-74
2022/06/15 08:54:25;;;;;;;6.85;3.97;;;;;;;24.26;57.43;96351.84;5035854;28;20287;-74
2022/06/15 08:56:56;;;;;;;11.65;3.70;;;;;;;24.92;58.19;96346.63;5038860;28;20209;-75
2022/06/15 08:59:31;;;;;;;6.35;3.75;;;;;;;25.41;56.18;96346.03;5039545;28;20232;-74
2022/06/15 09:02:09;;;;;;;7.75;3.60;;;;;;;25.13;58.75;96348.34;5039240;28;20357;-74
2022/06/15 09:04:47;;;;;;;6.60;3.42;;;;;;;25.44;56.04;96348.19;5038953;28;20578;-74
2022/06/15 09:07:32;;;;;;;9.77;4.07;;;;;;;25.02;54.05;96350.16;5039290;28;20201;-74
2022/06/15 09:10:15;;;;;;;7.30;4.15;;;;;;;25.24;55.70;96343.53;5038738;28;20225;-73
2022/06/15 09:12:58;;;;;;;5.47;3.53;;;;;;;25.42;54.80;96340.34;5038985;28;20208;-74
2022/06/15 09:15:43;;;;;;;5.63;3.63;;;;;;;25.67;55.00;96344.97;5038450;28;20209;-74
2022/06/15 09:18:19;;;;;;;6.65;3.22;;;;;;;25.79;55.48;96345.56;5038981;28;20229;-74
2022/06/15 09:20:49;;;;;;;7.40;3.50;;;;;;;25.84;52.66;96344.50;5039504;28;20205;-74
2022/06/15 09:23:21;;;;;;;7.32;4.05;;;;;;;25.55;52.14;96345.22;5038786;28;20209;-74
2022/06/15 09:25:52;;;;;;;7.97;3.88;;;;;;;25.62;55.26;96351.16;5038785;28;20197;-74
2022/06/15 09:28:26;;;;;;;7.20;4.15;;;;;;;25.77;52.39;96350.44;5038832;28;20697;-74
2022/06/15 09:30:54;;;;;;;7.47;3.80;;;;;;;25.79;53.67;96342.84;5039125;28;20376;-74
2022/06/15 09:33:28;;;;;;;7.53;3.72;;;;;;;26.02;51.36;96351.25;5037668;28;20212;-74
2022/06/15 09:36:02;;;;;;;8.02;3.65;;;;;;;26.15;51.36;96348.00;5038607;28;20587;-74
2022/06/15 09:38:29;;;;;;;7.90;3.50;;;;;;;26.21;51.85;96349.59;5039264;28;20229;-73
2022/06/15 09:41:00;;;;;;;5.93;3.20;;;;;;;26.51;50.47;96343.16;5038962;28;20539;-74
2022/06/15 09:43:38;;;;;;;6.63;3.40;;;;;;;26.46;47.82;96339.63;5037749;28;20579;-74
2022/06/15 09:46:14;;;;;;;7.95;3.40;;;;;;;26.79;48.54;96339.81;5038727;28;20205;-74
2022/06/15 09:48:57;;;;;;;6.85;3.17;;;;;;;27.03;49.14;96334.63;5038203;28;20228;-74
2022/06/15 09:51:35;;;;;;;5.05;3.13;;;;;;;26.94;47.77;96333.56;5038779;28;20216;-74
2022/06/15 09:54:07;;;;;;;4.97;2.90;;;;;;;27.08;47.03;96335.41;5037340;28;20623;-74
2022/06/15 09:56:34;;;;;;;4.20;3.33;;;;;;;27.25;50.36;96328.56;5038308;28;20399;-74
2022/06/15 09:59:04;;;;;;;4.57;2.88;;;;;;;27.69;47.68;96334.03;5038086;28;20221;-75
2022/06/15 10:01:34;;;;;;;6.97;3.35;;;;;;;27.32;47.01;96334.47;5038682;28;20233;-75
2022/06/15 10:04:05;;;;;;;8.38;3.10;;;;;;;27.44;47.31;96334.16;5037489;28;20213;-74
2022/06/15 10:06:42;;;;;;;5.50;3.17;;;;;;;27.93;47.36;96331.13;5037740;28;20673;-75
2022/06/15 10:09:11;;;;;;;5.75;2.92;;;;;;;27.43;44.73;96330.63;5038394;28;20228;-74
2022/06/15 10:11:42;;;;;;;5.65;3.00;;;;;;;27.34;45.84;96335.03;5038006;28;20460;-73
2022/06/15 10:14:24;;;;;;;4.40;2.92;;;;;;;27.45;49.05;96331.16;5037250;28;20212;-75
2022/06/15 10:16:56;;;;;;;4.63;3.00;;;;;;;26.96;46.39;96339.50;5037949;28;20220;-73
2022/06/15 10:19:26;;;;;;;7.30;3.17;;;;;;;27.29;45.52;96328.81;5038060;28;20237;-74
2022/06/15 10:21:55;;;;;;;6.05;3.20;;;;;;;27.74;48.50;96326.69;5037799;28;20212;-74
2022/06/15 10:24:27;;;;;;;7.70;3.22;;;;;;;28.36;45.43;96328.34;5037330;28;20292;-74
2022/06/15 10:27:22;;;;;;;4.25;2.75;;;;;;;28.72;43.12;96329.59;5037782;28;20209;-74
2022/06/15 10:29:59;;;;;;;4.65;3.10;;;;;;;28.76;46.75;96336.09;5037628;28;20252;-74
2022/06/15 10:32:27;;;;;;;6.15;3.13;;;;;;;28.11;43.06;96325.03;5037142;28;20201;-75
2022/06/15 10:35:06;;;;;;;4.20;2.53;;;;;;;28.73;42.21;96323.13;5036811;28;20545;-75
2022/06/15 10:37:35;;;;;;;6.45;2.60;;;;;;;28.58;43.27;96322.44;5037214;28;20507;-74
2022/06/15 10:40:05;;;;;;;4.78;2.60;;;;;;;28.85;40.91;96328.94;5038042;28;20201;-74
2022/06/15 10:42:35;;;;;;;8.30;2.80;;;;;;;28.98;42.04;96333.66;5036534;28;20205;-75
2022/06/15 10:45:04;;;;;;;4.78;2.85;;;;;;;28.54;42.43;96322.19;5036927;28;20923;-74
2022/06/15 10:47:41;;;;;;;7.60;2.78;;;;;;;28.70;42.58;96325.56;5036600;28;20353;-75
2022/06/15 10:50:21;;;;;;;3.75;2.42;;;;;;;28.98;42.00;96328.25;5037991;28;20259;-74
2022/06/15 10:52:54;;;;;;;4.57;2.95;;;;;;;29.13;41.56;96319.94;5036038;28;20207;-74
2022/06/15 11:04:12;;;;;;;5.03;3.28;;;;;;;29.14;44.44;96306.06;5036321;28;20216;-75
2022/06/15 11:06:46;;;;;;;3.88;3.00;;;;;;;29.61;42.70;96306.78;5036734;28;20205;-74
2022/06/15 11:09:27;;;;;;;5.85;3.05;;;;;;;29.97;43.70;96313.31;5037152;28;20231;-75
2022/06/15 11:11:55;;;;;;;5.40;2.60;;;;;;;29.40;44.25;96299.22;5036884;28;20201;-74
2022/06/15 11:14:28;;;;;;;5.00;2.80;;;;;;;29.42;41.10;96304.38;5035998;28;20205;-75
2022/06/15 11:19:57;;;;;;;5.90;2.83;;;;;;;29.79;42.36;96303.25;5036617;28;20637;-74
2022/06/15 11:22:28;;;;;;;4.53;2.88;;;;;;;29.90;41.24;96304.75;5036026;28;20232;-75
2022/06/15 11:25:00;;;;;;;6.35;2.58;;;;;;;30.14;42.00;96307.34;5036757;28;20212;-75
2022/06/15 11:27:30;;;;;;;4.57;2.58;;;;;;;29.98;42.24;96306.00;5036336;28;20228;-75
2022/06/15 11:30:00;;;;;;;4.53;2.67;;;;;;;30.28;40.86;96300.84;5036656;28;20217;-75
2022/06/15 11:32:42;;;;;;;5.55;3.03;;;;;;;30.11;40.56;96300.59;5036222;28;20208;-74
2022/06/15 11:35:22;;;;;;;5.43;2.60;;;;;;;29.95;39.84;96307.41;5036282;28;20205;-75
2022/06/15 11:37:55;;;;;;;4.53;2.50;;;;;;;30.21;42.46;96303.16;5036592;28;20217;-75
2022/06/15 11:40:27;;;;;;;4.70;2.30;;;;;;;30.32;43.67;96299.94;5036332;28;20198;-75
2022/06/15 11:42:54;;;;;;;3.53;2.40;;;;;;;30.03;38.95;96295.84;5034880;28;20295;-75
2022/06/15 11:45:26;;;;;;;4.13;2.85;;;;;;;30.10;37.95;96296.25;5036036;28;20655;-75
2022/06/15 11:48:03;;;;;;;4.25;2.60;;;;;;;29.82;38.74;96305.38;5036696;28;20228;-75
2022/06/15 11:50:35;;;;;;;4.53;2.80;;;;;;;30.15;39.68;96295.38;5035568;28;20229;-74
2022/06/15 11:53:16;;;;;;;3.38;2.53;;;;;;;30.81;37.32;96296.63;5034840;28;20205;-74
2022/06/15 11:55:45;;;;;;;4.72;2.50;;;;;;;30.89;39.22;96286.66;5036683;28;20208;-75
2022/06/15 11:58:28;;;;;;;3.40;2.45;;;;;;;31.30;38.69;96281.19;5036535;28;20225;-75
2022/06/15 12:01:06;;;;;;;4.75;2.30;;;;;;;31.20;38.97;96284.94;5035576;28;20665;-75
2022/06/15 12:04:05;;;;;;;4.40;2.30;;;;;;;30.94;41.14;96281.13;5035171;28;20209;-74